Time;durP1;ratioP1;P1;durP2;ratioP2;P2;SDS_P1;SDS_P2;PMS_P1;PMS_P2;Temp;Humidity;BMP_temperature;BMP_pressure;BME280_temperature;BME280_humidity;BME280_pressure;Samples;Min_cycle;Max_cycle;Signal;HPM_P1;HPM_P2
2023/02/07 00:02:18;;;;;;;;;;;2.10;99.90;;;;;;4989867;28;19914;-66
2023/02/07 00:04:43;;;;;;;;;;;2.10;99.90;;;;;;4994728;28;19910;-64
2023/02/07 00:07:09;;;;;;;;;;;2.00;99.90;;;;;;4991515;28;19990;-64
2023/02/07 00:09:36;;;;;;;;;;;2.00;99.90;;;;;;4993659;28;19921;-66
2023/02/07 00:12:02;;;;;;;;;;;2.10;99.90;;;;;;5002784;28;20315;-67
2023/02/07 00:14:31;;;;;;;;;;;2.00;99.90;;;;;;4996784;28;19929;-66
2023/02/07 00:16:56;;;;;;;;;;;2.00;99.90;;;;;;4994628;28;19917;-66
2023/02/07 00:19:22;;;;;;;;;;;2.00;99.90;;;;;;4996962;28;20094;-65
2023/02/07 00:21:48;;;;;;;;;;;1.90;99.90;;;;;;4993243;28;19920;-63
2023/02/07 00:24:13;;;;;;;;;;;1.90;99.90;;;;;;4993789;28;20328;-65
2023/02/07 00:26:39;;;;;;;;;;;1.80;99.90;;;;;;4993314;28;20292;-66
2023/02/07 00:29:05;;;;;;;;;;;1.80;99.90;;;;;;4999568;28;19916;-65
2023/02/07 00:31:32;;;;;;;;;;;1.80;99.90;;;;;;4989730;28;19914;-65
2023/02/07 00:33:59;;;;;;;;;;;1.60;99.90;;;;;;4988760;28;20024;-65
2023/02/07 00:36:25;;;;;;;;;;;1.70;99.90;;;;;;4990788;28;19914;-65
2023/02/07 00:38:54;;;;;;;;;;;1.70;99.90;;;;;;4990886;28;19914;-65
2023/02/07 00:41:20;;;;;;;;;;;1.80;99.90;;;;;;4988510;28;20383;-64
2023/02/07 00:43:46;;;;;;;;;;;1.80;99.90;;;;;;4991494;28;19918;-65
2023/02/07 00:46:12;;;;;;;;;;;1.80;99.90;;;;;;4972616;28;19973;-65
2023/02/07 00:48:39;;;;;;;;;;;1.80;99.90;;;;;;4989289;28;20304;-66
2023/02/07 00:51:05;;;;;;;;;;;1.70;99.90;;;;;;4989664;28;19937;-63
2023/02/07 00:53:30;;;;;;;;;;;1.70;99.90;;;;;;4991518;28;19959;-64
2023/02/07 00:55:59;;;;;;;;;;;1.70;99.90;;;;;;4990365;28;20012;-63
2023/02/07 00:58:25;;;;;;;;;;;1.80;99.90;;;;;;4990379;28;20304;-65
2023/02/07 01:00:51;;;;;;;;;;;1.70;99.90;;;;;;5001243;28;19918;-62
2023/02/07 01:03:17;;;;;;;;;;;1.60;99.90;;;;;;4993731;28;20353;-64
2023/02/07 01:05:43;;;;;;;;;;;1.60;99.90;;;;;;5002822;28;19910;-63
2023/02/07 01:08:11;;;;;;;;;;;1.60;99.90;;;;;;4999956;28;19914;-64
2023/02/07 01:10:40;;;;;;;;;;;1.70;99.90;;;;;;5000863;28;19918;-64
2023/02/07 01:13:06;;;;;;;;;;;1.80;99.90;;;;;;5009039;28;20371;-64
2023/02/07 01:15:35;;;;;;;;;;;1.70;99.90;;;;;;5003364;28;19913;-64
2023/02/07 01:18:03;;;;;;;;;;;1.80;99.90;;;;;;5001538;28;19986;-65
2023/02/07 01:20:29;;;;;;;;;;;1.70;99.90;;;;;;5002943;28;19969;-66
2023/02/07 01:22:55;;;;;;;;;;;1.60;99.90;;;;;;5003643;28;19909;-63
2023/02/07 01:25:20;;;;;;;;;;;1.70;99.90;;;;;;5002762;28;19910;-65
2023/02/07 01:27:46;;;;;;;;;;;1.70;99.90;;;;;;5002496;28;20006;-64
2023/02/07 01:30:12;;;;;;;;;;;1.60;99.90;;;;;;4994530;28;19914;-65
2023/02/07 01:32:38;;;;;;;;;;;1.70;99.90;;;;;;4992410;28;20017;-64
2023/02/07 01:35:03;;;;;;;;;;;1.70;99.90;;;;;;4993213;28;20384;-66
2023/02/07 01:37:29;;;;;;;;;;;1.80;99.90;;;;;;4990146;28;19997;-64
2023/02/07 01:39:55;;;;;;;;;;;1.70;99.90;;;;;;4990281;28;19918;-64
2023/02/07 01:42:22;;;;;;;;;;;1.70;99.90;;;;;;4990300;28;19914;-66
2023/02/07 01:44:51;;;;;;;;;;;1.70;99.90;;;;;;4992994;28;20217;-65
2023/02/07 01:47:19;;;;;;;;;;;1.70;99.90;;;;;;4991574;28;19942;-65
2023/02/07 01:49:45;;;;;;;;;;;1.70;99.90;;;;;;4990770;28;19922;-65
2023/02/07 01:52:16;;;;;;;;;;;1.70;99.90;;;;;;4992340;28;20052;-64
2023/02/07 01:54:44;;;;;;;;;;;1.80;99.90;;;;;;4997033;28;19914;-66
2023/02/07 01:57:12;;;;;;;;;;;1.80;99.90;;;;;;4992652;28;19944;-65
2023/02/07 01:59:42;;;;;;;;;;;1.80;99.90;;;;;;4999410;28;20398;-67
2023/02/07 02:02:09;;;;;;;;;;;1.90;99.90;;;;;;4990948;28;19918;-66
2023/02/07 02:04:36;;;;;;;;;;;1.90;99.90;;;;;;4992584;28;19975;-65
2023/02/07 02:07:03;;;;;;;;;;;1.90;99.90;;;;;;4993660;28;20162;-67
2023/02/07 02:09:28;;;;;;;;;;;1.90;99.90;;;;;;4990691;28;19921;-66
2023/02/07 02:11:57;;;;;;;;;;;1.90;99.90;;;;;;4993722;28;19914;-65
2023/02/07 02:14:41;;;;;;;;;;;1.90;99.90;;;;;;4985506;28;19914;-65
2023/02/07 02:17:10;;;;;;;;;;;1.90;99.90;;;;;;4990213;28;20384;-65
2023/02/07 02:19:39;;;;;;;;;;;1.80;99.90;;;;;;4989391;28;19943;-66
2023/02/07 02:22:10;;;;;;;;;;;1.90;99.90;;;;;;4987157;28;20452;-65
2023/02/07 02:25:15;;;;;;;;;;;1.90;99.90;;;;;;4989181;28;20586;-66
2023/02/07 02:27:59;;;;;;;;;;;1.80;99.90;;;;;;4931265;29;20001;-65
2023/02/07 02:30:50;;;;;;;;;;;1.80;99.90;;;;;;4933482;29;19983;-65
2023/02/07 02:33:35;;;;;;;;;;;1.80;99.90;;;;;;4955389;28;20376;-64
2023/02/07 02:36:13;;;;;;;;;;;1.90;99.90;;;;;;4990931;28;19918;-64
2023/02/07 02:39:01;;;;;;;;;;;1.90;99.90;;;;;;4990030;28;19914;-66
2023/02/07 02:41:41;;;;;;;;;;;1.90;99.90;;;;;;4990666;28;20074;-64
2023/02/07 02:44:09;;;;;;;;;;;1.90;99.90;;;;;;4989438;28;19944;-66
2023/02/07 02:46:37;;;;;;;;;;;1.80;99.90;;;;;;4989873;28;20481;-68
2023/02/07 02:49:03;;;;;;;;;;;1.80;99.90;;;;;;4989858;28;19922;-65
2023/02/07 02:51:29;;;;;;;;;;;1.80;99.90;;;;;;4989294;28;19913;-65
2023/02/07 02:53:56;;;;;;;;;;;1.80;99.90;;;;;;4989432;28;19937;-65
2023/02/07 02:56:32;;;;;;;;;;;1.90;99.90;;;;;;4988841;28;19941;-66
2023/02/07 02:59:16;;;;;;;;;;;1.90;99.90;;;;;;4990787;28;19952;-66
2023/02/07 03:01:42;;;;;;;;;;;1.80;99.90;;;;;;4983500;28;20010;-64
2023/02/07 03:04:18;;;;;;;;;;;1.90;99.90;;;;;;4986762;28;20324;-65
2023/02/07 03:07:09;;;;;;;;;;;1.90;99.90;;;;;;4988679;28;19925;-65
2023/02/07 03:09:50;;;;;;;;;;;1.90;99.90;;;;;;4986297;28;19914;-63
2023/02/07 03:12:38;;;;;;;;;;;1.80;99.90;;;;;;4988246;28;19958;-64
2023/02/07 03:15:04;;;;;;;;;;;1.80;99.90;;;;;;4987949;28;19918;-65
2023/02/07 03:17:56;;;;;;;;;;;1.70;99.90;;;;;;4988705;28;19981;-64
2023/02/07 03:20:26;;;;;;;;;;;1.70;99.90;;;;;;4983010;28;19961;-65
2023/02/07 03:22:52;;;;;;;;;;;1.70;99.90;;;;;;4986185;28;19960;-65
2023/02/07 03:25:19;;;;;;;;;;;1.70;99.90;;;;;;4988833;28;20365;-64
2023/02/07 03:27:45;;;;;;;;;;;1.60;99.90;;;;;;4990152;28;19913;-66
2023/02/07 03:30:13;;;;;;;;;;;1.60;99.90;;;;;;4988318;28;19926;-65
2023/02/07 03:32:41;;;;;;;;;;;1.60;99.90;;;;;;4984184;28;19969;-66
2023/02/07 03:35:19;;;;;;;;;;;1.70;99.90;;;;;;4987680;28;19920;-66
2023/02/07 03:37:55;;;;;;;;;;;1.70;99.90;;;;;;4988529;28;19914;-64
2023/02/07 03:40:22;;;;;;;;;;;1.80;99.90;;;;;;4988198;28;19961;-66
2023/02/07 03:42:56;;;;;;;;;;;1.80;99.90;;;;;;4988232;28;19914;-65
2023/02/07 03:45:22;;;;;;;;;;;1.90;99.90;;;;;;4985768;28;19933;-67
2023/02/07 03:47:48;;;;;;;;;;;1.90;99.90;;;;;;4987820;28;20254;-66
2023/02/07 03:50:14;;;;;;;;;;;1.90;99.90;;;;;;4987893;28;19929;-66
2023/02/07 03:52:40;;;;;;;;;;;1.90;99.90;;;;;;4988664;28;20239;-64
2023/02/07 03:55:06;;;;;;;;;;;2.00;99.90;;;;;;4988067;28;19914;-65
2023/02/07 03:57:32;;;;;;;;;;;1.90;99.90;;;;;;4986679;28;19921;-66
2023/02/07 03:59:57;;;;;;;;;;;1.70;99.90;;;;;;4986507;28;19917;-64
2023/02/07 04:02:23;;;;;;;;;;;1.70;99.90;;;;;;4989982;28;20032;-66
2023/02/07 04:04:49;;;;;;;;;;;1.70;99.90;;;;;;4993317;28;19913;-66
2023/02/07 04:07:15;;;;;;;;;;;1.60;99.90;;;;;;4998180;28;21097;-65
2023/02/07 04:09:40;;;;;;;;;;;1.60;99.90;;;;;;4978297;28;19917;-67
2023/02/07 04:12:06;;;;;;;;;;;1.60;99.90;;;;;;4977943;28;20015;-64
2023/02/07 04:14:32;;;;;;;;;;;1.60;99.90;;;;;;4999125;28;20370;-66
2023/02/07 04:16:57;;;;;;;;;;;1.60;99.90;;;;;;4998214;28;19980;-64
2023/02/07 04:19:23;;;;;;;;;;;1.60;99.90;;;;;;4998643;28;19921;-64
2023/02/07 04:21:49;;;;;;;;;;;1.60;99.90;;;;;;4996283;28;19917;-63
2023/02/07 04:24:14;;;;;;;;;;;1.50;99.90;;;;;;4986389;28;19916;-66
2023/02/07 04:26:40;;;;;;;;;;;1.40;99.90;;;;;;4997243;28;19958;-65
2023/02/07 04:29:06;;;;;;;;;;;1.40;99.90;;;;;;4981011;28;19909;-63
2023/02/07 04:31:32;;;;;;;;;;;1.40;99.90;;;;;;4997832;28;20354;-64
2023/02/07 04:33:58;;;;;;;;;;;1.30;99.90;;;;;;4996712;28;19990;-66
2023/02/07 04:36:23;;;;;;;;;;;1.20;99.90;;;;;;4979244;28;19948;-64
2023/02/07 04:38:49;;;;;;;;;;;1.20;99.90;;;;;;4997952;28;19910;-66
2023/02/07 04:41:15;;;;;;;;;;;1.20;99.90;;;;;;4996364;28;19913;-63
2023/02/07 04:43:40;;;;;;;;;;;1.20;99.90;;;;;;4989631;28;19985;-66
2023/02/07 04:46:06;;;;;;;;;;;1.10;99.90;;;;;;4990468;28;19923;-65
2023/02/07 04:48:32;;;;;;;;;;;1.10;99.90;;;;;;4973485;28;20559;-66
2023/02/07 04:50:58;;;;;;;;;;;1.10;99.90;;;;;;4985012;28;19918;-62
2023/02/07 04:53:24;;;;;;;;;;;1.10;99.90;;;;;;4989429;28;19997;-64
2023/02/07 04:55:51;;;;;;;;;;;1.00;99.90;;;;;;4992237;28;19932;-64
2023/02/07 04:58:17;;;;;;;;;;;0.90;99.90;;;;;;4991477;28;19914;-67
2023/02/07 05:00:43;;;;;;;;;;;0.80;99.90;;;;;;4987105;28;19933;-66
2023/02/07 05:03:09;;;;;;;;;;;0.80;99.90;;;;;;4987359;28;19913;-66
2023/02/07 05:05:37;;;;;;;;;;;0.70;99.90;;;;;;4992920;28;19925;-65
2023/02/07 05:08:03;;;;;;;;;;;0.80;99.90;;;;;;4990146;28;19914;-64
2023/02/07 05:10:28;;;;;;;;;;;0.80;99.90;;;;;;4989231;28;19941;-64
2023/02/07 05:12:54;;;;;;;;;;;0.70;99.90;;;;;;4988658;28;19984;-64
2023/02/07 05:15:20;;;;;;;;;;;0.70;99.90;;;;;;4991516;28;20008;-65
2023/02/07 05:17:46;;;;;;;;;;;0.80;99.90;;;;;;4991389;28;20134;-64
2023/02/07 05:20:11;;;;;;;;;;;0.80;99.90;;;;;;4991750;28;19917;-66
2023/02/07 05:22:37;;;;;;;;;;;0.70;99.90;;;;;;4989012;28;20520;-65
2023/02/07 05:25:03;;;;;;;;;;;0.80;99.90;;;;;;4993014;28;20016;-63
2023/02/07 05:27:29;;;;;;;;;;;0.80;99.90;;;;;;4989971;28;20272;-63
2023/02/07 05:29:55;;;;;;;;;;;0.80;99.90;;;;;;4987071;28;19914;-63
2023/02/07 05:35:04;;;;;;;;;;;0.80;99.90;;;;;;4990778;28;19928;-65
2023/02/07 05:37:30;;;;;;;;;;;0.80;99.90;;;;;;4994192;28;19925;-66
2023/02/07 05:39:56;;;;;;;;;;;0.80;99.90;;;;;;4989177;28;19917;-65
2023/02/07 05:42:21;;;;;;;;;;;0.80;99.90;;;;;;4989200;28;19928;-64
2023/02/07 05:44:47;;;;;;;;;;;0.80;99.90;;;;;;4989695;28;20332;-64
2023/02/07 05:47:13;;;;;;;;;;;0.80;99.90;;;;;;4990854;28;19918;-65
2023/02/07 05:49:39;;;;;;;;;;;0.80;99.90;;;;;;4992512;28;20187;-64
2023/02/07 05:52:04;;;;;;;;;;;0.90;99.90;;;;;;4989171;28;20308;-66
2023/02/07 05:54:30;;;;;;;;;;;1.00;99.90;;;;;;4979484;28;19922;-66
2023/02/07 05:56:56;;;;;;;;;;;0.90;99.90;;;;;;4989102;28;20486;-65
2023/02/07 05:59:21;;;;;;;;;;;0.90;99.90;;;;;;4990784;28;19938;-62
2023/02/07 06:01:47;;;;;;;;;;;0.90;99.90;;;;;;4985598;28;19918;-65
2023/02/07 06:04:13;;;;;;;;;;;0.90;99.90;;;;;;4995471;28;19917;-65
2023/02/07 06:06:38;;;;;;;;;;;0.90;99.90;;;;;;4997397;28;19914;-65
2023/02/07 06:09:04;;;;;;;;;;;0.80;99.90;;;;;;4982056;28;20323;-65
2023/02/07 06:11:30;;;;;;;;;;;0.90;99.90;;;;;;4991218;28;19921;-64
2023/02/07 06:13:55;;;;;;;;;;;0.90;99.90;;;;;;4995852;28;19940;-64
2023/02/07 06:16:21;;;;;;;;;;;1.00;99.90;;;;;;4993701;28;19936;-62
2023/02/07 06:18:47;;;;;;;;;;;1.10;99.90;;;;;;4993859;28;20363;-67
2023/02/07 06:21:12;;;;;;;;;;;1.20;99.90;;;;;;4995883;28;19929;-66
2023/02/07 06:23:38;;;;;;;;;;;1.30;99.90;;;;;;4997718;28;19914;-66
2023/02/07 06:26:04;;;;;;;;;;;1.30;99.90;;;;;;4993529;28;19956;-67
2023/02/07 06:28:32;;;;;;;;;;;1.30;99.90;;;;;;4995506;28;19910;-67
2023/02/07 06:30:58;;;;;;;;;;;1.30;99.90;;;;;;4989837;28;19941;-67
2023/02/07 06:33:24;;;;;;;;;;;1.40;99.90;;;;;;4988249;28;20349;-68
2023/02/07 06:35:50;;;;;;;;;;;1.50;99.90;;;;;;4986891;28;19917;-67
2023/02/07 06:38:16;;;;;;;;;;;1.50;99.90;;;;;;4988573;28;19933;-67
2023/02/07 06:40:45;;;;;;;;;;;1.60;99.90;;;;;;4989312;28;19945;-67
2023/02/07 06:43:11;;;;;;;;;;;1.60;99.90;;;;;;4987274;28;19914;-67
2023/02/07 06:45:37;;;;;;;;;;;1.60;99.90;;;;;;4986438;28;19940;-68
2023/02/07 06:48:05;;;;;;;;;;;1.60;99.90;;;;;;4998381;28;19914;-68
2023/02/07 06:50:31;;;;;;;;;;;1.70;99.90;;;;;;4978013;28;20233;-68
2023/02/07 06:53:00;;;;;;;;;;;1.70;99.90;;;;;;4986286;28;19910;-67
2023/02/07 06:55:30;;;;;;;;;;;1.70;99.90;;;;;;4987908;28;20045;-67
2023/02/07 06:57:55;;;;;;;;;;;1.60;99.90;;;;;;4988101;28;19945;-67
2023/02/07 07:00:21;;;;;;;;;;;1.60;99.90;;;;;;4984492;28;20414;-67
2023/02/07 07:02:47;;;;;;;;;;;1.70;99.90;;;;;;4985314;28;19922;-67
2023/02/07 07:05:13;;;;;;;;;;;1.70;99.90;;;;;;4966274;28;19941;-68
2023/02/07 07:07:39;;;;;;;;;;;1.70;99.90;;;;;;4969080;28;19917;-67
2023/02/07 07:10:05;;;;;;;;;;;1.70;99.90;;;;;;4985630;28;19918;-67
2023/02/07 07:12:31;;;;;;;;;;;1.70;99.90;;;;;;4982858;28;19960;-67
2023/02/07 07:14:56;;;;;;;;;;;1.80;99.90;;;;;;4987979;28;19914;-66
2023/02/07 07:17:22;;;;;;;;;;;1.90;99.90;;;;;;4983219;28;19933;-67
2023/02/07 07:19:48;;;;;;;;;;;1.90;99.90;;;;;;4969507;28;20049;-68
2023/02/07 07:22:13;;;;;;;;;;;1.90;99.90;;;;;;4979014;28;20295;-68
2023/02/07 07:24:39;;;;;;;;;;;2.00;99.90;;;;;;4980497;28;19917;-68
2023/02/07 07:27:05;;;;;;;;;;;2.00;99.90;;;;;;4982840;28;20016;-67
2023/02/07 07:29:30;;;;;;;;;;;2.10;99.90;;;;;;4979535;28;19918;-68
2023/02/07 07:31:56;;;;;;;;;;;2.10;99.90;;;;;;4978955;28;19914;-67
2023/02/07 07:34:22;;;;;;;;;;;2.10;99.90;;;;;;4979215;28;19957;-68
2023/02/07 07:36:47;;;;;;;;;;;2.10;99.90;;;;;;4990858;28;20378;-68
2023/02/07 07:39:13;;;;;;;;;;;2.20;99.90;;;;;;4999576;28;19913;-68
2023/02/07 07:41:39;;;;;;;;;;;2.20;99.90;;;;;;4991143;28;19914;-68
2023/02/07 07:44:05;;;;;;;;;;;2.20;99.90;;;;;;4996682;28;19914;-68
2023/02/07 07:46:30;;;;;;;;;;;2.60;99.90;;;;;;4997070;28;19917;-68
2023/02/07 07:48:56;;;;;;;;;;;2.80;99.90;;;;;;4998859;28;19928;-68
2023/02/07 07:51:22;;;;;;;;;;;3.10;99.90;;;;;;4992468;28;19914;-68
2023/02/07 07:53:48;;;;;;;;;;;3.10;99.90;;;;;;4993890;28;20487;-69
2023/02/07 07:56:13;;;;;;;;;;;3.20;99.90;;;;;;4992270;28;19936;-69
2023/02/07 07:58:39;;;;;;;;;;;3.20;99.90;;;;;;4993522;28;19932;-68
2023/02/07 08:01:04;;;;;;;;;;;3.30;99.90;;;;;;4999088;28;19914;-68
2023/02/07 08:03:30;;;;;;;;;;;3.20;99.90;;;;;;4994320;28;19914;-69
2023/02/07 08:05:56;;;;;;;;;;;3.00;99.90;;;;;;4992666;28;20307;-68
2023/02/07 08:08:21;;;;;;;;;;;2.90;99.90;;;;;;4993261;28;19910;-68
2023/02/07 08:10:47;;;;;;;;;;;2.90;99.90;;;;;;5002815;28;19916;-68
2023/02/07 08:13:13;;;;;;;;;;;2.80;99.90;;;;;;4992643;28;19918;-68
2023/02/07 08:15:39;;;;;;;;;;;2.80;99.90;;;;;;5000619;28;20000;-68
2023/02/07 08:18:04;;;;;;;;;;;2.90;99.90;;;;;;4995179;28;19917;-69
2023/02/07 08:20:30;;;;;;;;;;;3.00;99.90;;;;;;4997140;28;19925;-68
2023/02/07 08:22:56;;;;;;;;;;;2.90;99.90;;;;;;4995934;28;19909;-68
2023/02/07 08:25:22;;;;;;;;;;;3.00;99.90;;;;;;4995957;28;19914;-69
2023/02/07 08:27:48;;;;;;;;;;;3.00;99.90;;;;;;4980051;28;20324;-68
2023/02/07 08:30:14;;;;;;;;;;;3.00;99.90;;;;;;4997163;28;19996;-68
2023/02/07 08:32:40;;;;;;;;;;;3.10;99.90;;;;;;5002682;28;19910;-68
2023/02/07 08:35:07;;;;;;;;;;;3.10;99.90;;;;;;5004680;28;20473;-68
2023/02/07 08:37:33;;;;;;;;;;;3.20;99.90;;;;;;4994721;28;19917;-68
2023/02/07 08:39:58;;;;;;;;;;;3.30;99.90;;;;;;4995540;28;20238;-68
2023/02/07 08:42:24;;;;;;;;;;;3.30;99.90;;;;;;5002550;28;19976;-68
2023/02/07 08:44:50;;;;;;;;;;;3.30;99.90;;;;;;4994127;28;19914;-68
2023/02/07 08:47:16;;;;;;;;;;;3.40;99.90;;;;;;4997173;28;19914;-68
2023/02/07 08:49:41;;;;;;;;;;;3.40;99.90;;;;;;4996959;28;19914;-68
2023/02/07 08:52:07;;;;;;;;;;;3.40;99.90;;;;;;4988773;28;20448;-68
2023/02/07 08:54:33;;;;;;;;;;;3.40;99.90;;;;;;4995364;28;19914;-68
2023/02/07 08:56:59;;;;;;;;;;;3.40;99.90;;;;;;4992228;28;19973;-69
2023/02/07 08:59:24;;;;;;;;;;;3.50;99.90;;;;;;4998424;28;19917;-67
2023/02/07 09:01:50;;;;;;;;;;;3.50;99.90;;;;;;4997622;28;19971;-68
2023/02/07 09:04:16;;;;;;;;;;;3.50;99.90;;;;;;4998137;28;19985;-68
2023/02/07 09:06:42;;;;;;;;;;;3.60;99.90;;;;;;5000825;28;19993;-68
2023/02/07 09:09:08;;;;;;;;;;;3.70;99.90;;;;;;4984266;28;20562;-68
2023/02/07 09:11:34;;;;;;;;;;;3.70;99.90;;;;;;4994238;28;19980;-68
2023/02/07 09:14:00;;;;;;;;;;;3.70;99.90;;;;;;4993614;28;19953;-68
2023/02/07 09:16:26;;;;;;;;;;;3.90;99.90;;;;;;4993289;28;19969;-68
2023/02/07 09:18:51;;;;;;;;;;;3.90;99.90;;;;;;4981654;28;20475;-69
2023/02/07 09:21:17;;;;;;;;;;;3.90;99.90;;;;;;4996651;28;19918;-68
2023/02/07 09:23:43;;;;;;;;;;;3.90;99.90;;;;;;4994461;28;20363;-68
2023/02/07 09:26:10;;;;;;;;;;;3.90;99.90;;;;;;4994320;28;19938;-68
2023/02/07 09:28:36;;;;;;;;;;;4.00;99.60;;;;;;4993019;28;19920;-68
2023/02/07 09:31:09;;;;;;;;;;;4.10;98.70;;;;;;4996716;28;19984;-68
2023/02/07 09:33:35;;;;;;;;;;;4.10;98.60;;;;;;4995266;28;19921;-68
2023/02/07 09:36:01;;;;;;;;;;;4.10;98.80;;;;;;4994084;28;19914;-68
2023/02/07 09:38:27;;;;;;;;;;;4.20;96.90;;;;;;4998330;28;19921;-68
2023/02/07 09:40:53;;;;;;;;;;;4.30;96.70;;;;;;4994311;28;19966;-67
2023/02/07 09:43:18;;;;;;;;;;;4.40;95.90;;;;;;4989378;28;19917;-68
2023/02/07 09:45:46;;;;;;;;;;;4.50;96.30;;;;;;4990574;28;19921;-68
2023/02/07 09:48:19;;;;;;;;;;;4.50;96.10;;;;;;4987933;28;19924;-68
2023/02/07 09:50:52;;;;;;;;;;;4.50;95.80;;;;;;5000819;28;19913;-68
2023/02/07 09:53:38;;;;;;;;;;;4.60;96.30;;;;;;5007221;28;19913;-68
2023/02/07 09:56:04;;;;;;;;;;;4.70;96.50;;;;;;4995360;28;19913;-68
2023/02/07 09:58:48;;;;;;;;;;;4.80;95.80;;;;;;4993036;28;19940;-68
2023/02/07 10:01:16;;;;;;;;;;;4.90;94.80;;;;;;4984897;28;19918;-68
2023/02/07 10:03:45;;;;;;;;;;;4.90;95.30;;;;;;4993856;28;19961;-68
2023/02/07 10:06:16;;;;;;;;;;;4.90;94.90;;;;;;4989412;28;19918;-68
2023/02/07 10:08:43;;;;;;;;;;;4.90;94.90;;;;;;4991758;28;19914;-68
2023/02/07 10:11:19;;;;;;;;;;;5.00;94.80;;;;;;5003644;28;19917;-68
2023/02/07 10:14:02;;;;;;;;;;;5.10;94.50;;;;;;4993679;28;19964;-67
2023/02/07 10:16:41;;;;;;;;;;;5.20;93.90;;;;;;4992342;28;19922;-67
2023/02/07 10:19:20;;;;;;;;;;;5.20;93.70;;;;;;4992674;28;19922;-67
2023/02/07 10:21:45;;;;;;;;;;;5.20;93.00;;;;;;4991647;28;19988;-68
2023/02/07 10:24:30;;;;;;;;;;;5.20;93.30;;;;;;4991849;28;20369;-67
2023/02/07 10:27:02;;;;;;;;;;;5.30;92.70;;;;;;4994136;28;19941;-67
2023/02/07 10:29:40;;;;;;;;;;;5.30;92.80;;;;;;4995193;28;19918;-68
2023/02/07 10:32:29;;;;;;;;;;;5.20;92.70;;;;;;4991019;28;19914;-69
2023/02/07 10:34:57;;;;;;;;;;;5.20;92.50;;;;;;4977294;28;19954;-68
2023/02/07 10:37:24;;;;;;;;;;;5.20;92.90;;;;;;4990016;28;20028;-67
2023/02/07 10:40:04;;;;;;;;;;;5.30;92.30;;;;;;4991747;28;19917;-67
2023/02/07 10:42:32;;;;;;;;;;;5.40;91.90;;;;;;4992976;28;19921;-66
2023/02/07 10:44:58;;;;;;;;;;;5.40;91.40;;;;;;4991166;28;20308;-67
2023/02/07 10:47:25;;;;;;;;;;;5.40;91.30;;;;;;4994900;28;20042;-68
2023/02/07 10:49:52;;;;;;;;;;;5.50;91.30;;;;;;4996329;28;19922;-68
2023/02/07 10:52:28;;;;;;;;;;;5.40;91.00;;;;;;4988887;28;20276;-67
2023/02/07 10:54:56;;;;;;;;;;;5.50;91.10;;;;;;4995405;28;19921;-67
2023/02/07 10:57:21;;;;;;;;;;;5.50;91.50;;;;;;4989960;28;20005;-68
2023/02/07 10:59:49;;;;;;;;;;;5.40;91.80;;;;;;5000164;28;20359;-67
2023/02/07 11:02:27;;;;;;;;;;;5.40;92.00;;;;;;4995270;28;20014;-68
2023/02/07 11:04:53;;;;;;;;;;;5.40;91.80;;;;;;4992453;28;19921;-68
2023/02/07 11:07:20;;;;;;;;;;;5.50;92.10;;;;;;4975485;28;20012;-67
2023/02/07 11:09:46;;;;;;;;;;;5.50;92.00;;;;;;4992102;28;19960;-67
2023/02/07 11:12:22;;;;;;;;;;;5.60;91.90;;;;;;4992773;28;19925;-67
2023/02/07 11:15:01;;;;;;;;;;;5.70;91.30;;;;;;5008130;28;20000;-67
2023/02/07 11:17:30;;;;;;;;;;;5.80;91.00;;;;;;5013734;28;19940;-68
2023/02/07 11:19:56;;;;;;;;;;;6.00;90.80;;;;;;5007359;28;19918;-67
2023/02/07 11:22:23;;;;;;;;;;;6.00;90.40;;;;;;4989198;28;19922;-68
2023/02/07 11:24:51;;;;;;;;;;;6.10;90.20;;;;;;4987651;28;19923;-68
2023/02/07 11:27:18;;;;;;;;;;;6.20;90.20;;;;;;4993115;28;20288;-68
2023/02/07 11:29:54;;;;;;;;;;;6.20;90.20;;;;;;4992820;28;20001;-68
2023/02/07 11:32:20;;;;;;;;;;;6.20;89.50;;;;;;4996336;28;19980;-67
2023/02/07 11:34:57;;;;;;;;;;;6.30;89.30;;;;;;4996644;28;20390;-67
2023/02/07 11:37:24;;;;;;;;;;;6.40;89.50;;;;;;5003581;28;19920;-67
2023/02/07 11:39:52;;;;;;;;;;;6.40;90.00;;;;;;4996941;28;20538;-68
2023/02/07 11:42:19;;;;;;;;;;;6.40;90.30;;;;;;4999356;28;20416;-68
2023/02/07 11:44:46;;;;;;;;;;;6.50;90.30;;;;;;4997441;28;19914;-67
2023/02/07 11:47:20;;;;;;;;;;;6.50;90.60;;;;;;4996449;28;20009;-68
2023/02/07 11:49:48;;;;;;;;;;;6.60;90.70;;;;;;4996587;28;19945;-68
2023/02/07 11:52:14;;;;;;;;;;;6.70;90.00;;;;;;4999175;28;19928;-67
2023/02/07 11:54:41;;;;;;;;;;;6.70;90.40;;;;;;4999437;28;19917;-67
2023/02/07 11:57:12;;;;;;;;;;;6.70;90.50;;;;;;5002516;28;19918;-67
2023/02/07 12:00:05;;;;;;;;;;;6.70;90.40;;;;;;4996454;28;19917;-68
2023/02/07 12:02:32;;;;;;;;;;;6.90;90.60;;;;;;4967347;28;19961;-69
2023/02/07 12:05:17;;;;;;;;;;;6.90;90.60;;;;;;5003109;28;19920;-68
2023/02/07 12:07:45;;;;;;;;;;;7.00;88.80;;;;;;4999365;28;19914;-68
2023/02/07 12:10:14;;;;;;;;;;;7.20;87.10;;;;;;4997370;28;19913;-69
2023/02/07 12:12:40;;;;;;;;;;;7.10;86.30;;;;;;4995565;28;19922;-68
2023/02/07 12:15:07;;;;;;;;;;;7.20;83.10;;;;;;5007256;28;19914;-68
2023/02/07 12:17:56;;;;;;;;;;;7.20;83.10;;;;;;5014948;28;19957;-68
2023/02/07 12:20:30;;;;;;;;;;;7.20;83.40;;;;;;5005985;28;19918;-68
2023/02/07 12:23:11;;;;;;;;;;;7.10;83.40;;;;;;5100392;28;19939;-68
2023/02/07 12:25:39;;;;;;;;;;;7.20;84.00;;;;;;5079783;28;19913;-68
2023/02/07 12:28:12;;;;;;;;;;;7.20;84.30;;;;;;5080848;28;19932;-68
2023/02/07 12:30:44;;;;;;;;;;;7.30;83.40;;;;;;5084210;28;19920;-68
2023/02/07 12:33:18;;;;;;;;;;;7.30;83.50;;;;;;5097486;28;19935;-68
2023/02/07 12:36:10;;;;;;;;;;;7.30;84.20;;;;;;5088932;28;20332;-68
2023/02/07 12:38:39;;;;;;;;;;;7.40;82.80;;;;;;5118568;27;19999;-68
2023/02/07 12:41:14;;;;;;;;;;;7.30;83.60;;;;;;5091729;28;19922;-66
2023/02/07 12:43:46;;;;;;;;;;;7.30;83.60;;;;;;5096204;28;19914;-68
2023/02/07 12:46:27;;;;;;;;;;;7.30;84.50;;;;;;5093240;28;19962;-68
2023/02/07 12:49:05;;;;;;;;;;;7.30;85.10;;;;;;5091172;28;19916;-68
2023/02/07 12:51:51;;;;;;;;;;;7.40;86.40;;;;;;5092238;28;20428;-68
2023/02/07 12:54:27;;;;;;;;;;;7.40;87.60;;;;;;5128790;28;20350;-69
2023/02/07 12:56:52;;;;;;;;;;;7.40;88.40;;;;;;5092503;28;19917;-68
2023/02/07 12:59:27;;;;;;;;;;;7.50;88.50;;;;;;5095026;28;19908;-68
2023/02/07 13:01:59;;;;;;;;;;;7.60;87.00;;;;;;5094964;28;20010;-69
2023/02/07 13:04:43;;;;;;;;;;;7.60;87.10;;;;;;5096297;28;19908;-68
2023/02/07 13:07:15;;;;;;;;;;;7.60;83.90;;;;;;5094838;28;19912;-68
2023/02/07 13:09:41;;;;;;;;;;;7.50;83.40;;;;;;5076061;28;19908;-68
2023/02/07 13:12:06;;;;;;;;;;;7.40;83.80;;;;;;5082239;28;19962;-69
2023/02/07 13:14:51;;;;;;;;;;;7.40;84.90;;;;;;5095978;28;19931;-69
2023/02/07 13:17:37;;;;;;;;;;;7.30;83.30;;;;;;5095726;28;19961;-69
2023/02/07 13:20:17;;;;;;;;;;;7.30;81.80;;;;;;5096287;28;19954;-69
2023/02/07 13:22:45;;;;;;;;;;;7.20;82.30;;;;;;5083176;28;19916;-67
2023/02/07 13:25:31;;;;;;;;;;;7.10;82.70;;;;;;5094068;28;19909;-69
2023/02/07 13:27:59;;;;;;;;;;;7.10;84.50;;;;;;5076094;28;19913;-69
2023/02/07 13:30:26;;;;;;;;;;;7.10;85.00;;;;;;5091699;28;19912;-69
2023/02/07 13:32:52;;;;;;;;;;;7.00;83.50;;;;;;5088987;28;20344;-69
2023/02/07 13:35:23;;;;;;;;;;;7.10;83.50;;;;;;5081302;28;19974;-68
2023/02/07 13:37:59;;;;;;;;;;;7.20;84.30;;;;;;5078186;28;19908;-68
2023/02/07 13:40:45;;;;;;;;;;;7.10;83.30;;;;;;5080063;28;19916;-68
2023/02/07 13:43:22;;;;;;;;;;;7.10;83.70;;;;;;5074221;28;20328;-67
2023/02/07 13:45:58;;;;;;;;;;;7.00;83.20;;;;;;5081307;28;19916;-68
2023/02/07 13:48:53;;;;;;;;;;;7.00;82.80;;;;;;5080924;28;19912;-69
2023/02/07 13:51:23;;;;;;;;;;;7.00;83.00;;;;;;5081394;28;19912;-67
2023/02/07 13:53:58;;;;;;;;;;;7.10;83.00;;;;;;5081379;28;19915;-68
2023/02/07 13:59:38;;;;;;;;;;;7.10;83.20;;;;;;5082977;28;19934;-68
2023/02/07 14:02:05;;;;;;;;;;;7.10;83.20;;;;;;5080113;28;19928;-68
2023/02/07 14:04:48;;;;;;;;;;;7.20;83.30;;;;;;5081944;28;19995;-69
2023/02/07 14:07:34;;;;;;;;;;;7.10;82.40;;;;;;5079617;28;20426;-69
2023/02/07 14:10:01;;;;;;;;;;;7.10;81.90;;;;;;5084101;28;19909;-68
2023/02/07 14:12:28;;;;;;;;;;;7.10;81.90;;;;;;5086154;28;19920;-67
2023/02/07 14:14:54;;;;;;;;;;;7.00;81.60;;;;;;5087214;28;19924;-67
2023/02/07 14:17:26;;;;;;;;;;;7.10;82.30;;;;;;5080186;28;20274;-69
2023/02/07 14:19:55;;;;;;;;;;;7.20;81.10;;;;;;5080971;28;20310;-68
2023/02/07 14:22:28;;;;;;;;;;;7.20;81.20;;;;;;5071622;28;19920;-68
2023/02/07 14:24:57;;;;;;;;;;;7.20;81.00;;;;;;5079084;28;19944;-68
2023/02/07 14:27:31;;;;;;;;;;;7.30;80.50;;;;;;5082070;28;20585;-69
2023/02/07 14:30:16;;;;;;;;;;;7.20;80.00;;;;;;5080766;28;19962;-69
2023/02/07 14:33:02;;;;;;;;;;;7.20;80.70;;;;;;5084271;28;19986;-67
2023/02/07 14:35:28;;;;;;;;;;;7.30;79.70;;;;;;5065216;28;19980;-67
2023/02/07 14:37:59;;;;;;;;;;;7.20;77.70;;;;;;5080610;28;19975;-68
2023/02/07 14:40:34;;;;;;;;;;;7.20;78.60;;;;;;5078978;28;20015;-68
2023/02/07 14:43:07;;;;;;;;;;;7.30;79.30;;;;;;5077880;28;19920;-69
2023/02/07 14:45:34;;;;;;;;;;;7.30;79.40;;;;;;5076980;28;20302;-69
2023/02/07 14:48:00;;;;;;;;;;;7.30;80.60;;;;;;5078973;28;20010;-67
2023/02/07 14:50:29;;;;;;;;;;;7.40;80.40;;;;;;5078892;28;20325;-67